Terminal Aerodrome Forecast
Issued by NWS

Home | Current Version | Previous Version | Text Only | Print | Product List | Glossary On
Versions: 1 2 3 4 5 6 7 8 9 10 11 12 13 14 15 16 17 18 19 20 21 22 23 24 25 26
743
FTUS43 KGRB 261328 AAB
TAFATW
TAF AMD
KATW 261328Z 2613/2712 18005KT 2SM BR BKN002 OVC100
     FM261400 21005KT 3SM SHRA BR BKN002 BKN040
      TEMPO 2614/2616 1 1/2SM TSRA BR OVC003CB
     FM261600 21008KT P6SM SCT003 BKN070
     FM262100 18008G15KT P6SM SCT040 BKN250
     FM270200 15004KT 4SM BR SCT008 BKN250
      TEMPO 2708/2712 1 1/2SM BR BKN005=

USA.gov is the U.S. government's official web portal to all federal, state and local government web resources and services.